Time;durP1;ratioP1;P1;durP2;ratioP2;P2;SDS_P1;SDS_P2;PMS_P1;PMS_P2;Temp;Humidity;BMP_temperature;BMP_pressure;BME280_temperature;BME280_humidity;BME280_pressure;Samples;Min_cycle;Max_cycle;Signal;HPM_P1;HPM_P2
2022/05/21 00:01:52;;;;;;;3.77;3.40;;;;;;;;;;4972750;28;20207;-73
2022/05/21 00:04:17;;;;;;;3.60;3.30;;;;;;;;;;4977105;28;20243;-73
2022/05/21 00:06:42;;;;;;;5.30;3.87;;;;;;;;;;4985785;28;20277;-73
2022/05/21 00:09:09;;;;;;;4.03;3.73;;;;;;;;;;4961475;28;20214;-73
2022/05/21 00:11:34;;;;;;;3.87;3.40;;;;;;;;;;4962491;28;20276;-74
2022/05/21 00:13:59;;;;;;;4.03;3.73;;;;;;;;;;4964103;28;20272;-73
2022/05/21 00:16:25;;;;;;;3.87;3.57;;;;;;;;;;4965568;28;20190;-73
2022/05/21 00:18:50;;;;;;;4.63;3.53;;;;;;;;;;4962356;28;20186;-73
2022/05/21 00:21:15;;;;;;;4.03;3.50;;;;;;;;;;4962884;28;20275;-73
2022/05/21 00:23:41;;;;;;;5.73;3.77;;;;;;;;;;4973162;28;20208;-73
2022/05/21 00:26:14;;;;;;;4.00;3.60;;;;;;;;;;4955663;28;20192;-73
2022/05/21 00:28:40;;;;;;;3.73;3.43;;;;;;;;;;4969322;28;20228;-73
2022/05/21 00:31:06;;;;;;;4.20;3.80;;;;;;;;;;4964267;28;20203;-73
2022/05/21 00:33:32;;;;;;;3.73;3.43;;;;;;;;;;4972688;28;20182;-73
2022/05/21 00:35:57;;;;;;;4.63;4.23;;;;;;;;;;4972404;28;20177;-73
2022/05/21 00:38:23;;;;;;;5.43;4.17;;;;;;;;;;4975533;28;20186;-73
2022/05/21 00:40:49;;;;;;;4.77;4.37;;;;;;;;;;4968948;28;20188;-73
2022/05/21 00:43:33;;;;;;;4.33;3.73;;;;;;;;;;4963539;28;20232;-73
2022/05/21 00:45:59;;;;;;;5.93;3.93;;;;;;;;;;4968586;28;20204;-73
2022/05/21 00:48:24;;;;;;;3.83;3.50;;;;;;;;;;4977760;28;20254;-73
2022/05/21 00:50:49;;;;;;;4.80;3.70;;;;;;;;;;4969731;28;20203;-73
2022/05/21 00:53:15;;;;;;;5.20;4.03;;;;;;;;;;4973386;28;20181;-73
2022/05/21 00:55:41;;;;;;;4.07;3.77;;;;;;;;;;4966939;28;20177;-73
2022/05/21 01:00:55;;;;;;;5.13;4.00;;;;;;;;;;4967451;28;20219;-72
2022/05/21 01:03:20;;;;;;;3.83;3.37;;;;;;;;;;4964126;28;20179;-73
2022/05/21 01:05:46;;;;;;;3.80;3.50;;;;;;;;;;4959684;28;20238;-73
2022/05/21 01:08:12;;;;;;;5.60;3.70;;;;;;;;;;4964559;28;20199;-73
2022/05/21 01:10:40;;;;;;;4.13;3.83;;;;;;;;;;4965741;28;20195;-73
2022/05/21 01:13:08;;;;;;;4.13;3.83;;;;;;;;;;4975589;28;20179;-74
2022/05/21 01:15:36;;;;;;;4.00;3.47;;;;;;;;;;4963089;28;20175;-73
2022/05/21 01:18:07;;;;;;;3.70;3.40;;;;;;;;;;4972154;28;20192;-73
2022/05/21 01:20:37;;;;;;;4.20;3.80;;;;;;;;;;4967665;28;20191;-72
2022/05/21 01:23:02;;;;;;;3.93;3.57;;;;;;;;;;4964220;28;20241;-73
2022/05/21 01:25:29;;;;;;;4.13;3.73;;;;;;;;;;4979146;28;20187;-73
2022/05/21 01:27:54;;;;;;;4.50;4.10;;;;;;;;;;4978707;28;20207;-73
2022/05/21 01:30:22;;;;;;;5.50;4.40;;;;;;;;;;4965991;28;20187;-73
2022/05/21 01:32:48;;;;;;;4.87;4.47;;;;;;;;;;4972072;28;20182;-72
2022/05/21 01:35:14;;;;;;;5.47;4.97;;;;;;;;;;4974934;28;20350;-72
2022/05/21 01:37:41;;;;;;;4.17;3.83;;;;;;;;;;4976120;28;20268;-73
2022/05/21 01:40:07;;;;;;;5.87;5.33;;;;;;;;;;4978271;28;20273;-72
2022/05/21 01:42:33;;;;;;;5.90;5.40;;;;;;;;;;4970065;28;20177;-72
2022/05/21 01:44:58;;;;;;;5.17;4.77;;;;;;;;;;4972156;28;20210;-73
2022/05/21 01:47:24;;;;;;;8.37;5.73;;;;;;;;;;4974734;28;20199;-73
2022/05/21 01:49:49;;;;;;;5.10;4.60;;;;;;;;;;4973537;28;20189;-72
2022/05/21 01:52:15;;;;;;;5.60;4.90;;;;;;;;;;4982801;28;20175;-72
2022/05/21 01:54:40;;;;;;;5.80;5.30;;;;;;;;;;4966639;28;20182;-73
2022/05/21 01:57:06;;;;;;;5.30;4.80;;;;;;;;;;4977246;28;20282;-73
2022/05/21 01:59:31;;;;;;;6.23;5.63;;;;;;;;;;4966378;28;20181;-72
2022/05/21 02:01:57;;;;;;;5.87;5.13;;;;;;;;;;4978210;28;20204;-73
2022/05/21 02:04:22;;;;;;;5.50;5.00;;;;;;;;;;4963406;28;20273;-73
2022/05/21 02:06:48;;;;;;;5.70;5.20;;;;;;;;;;4965640;28;20277;-72
2022/05/21 02:09:13;;;;;;;5.57;4.80;;;;;;;;;;4968654;28;20198;-72
2022/05/21 02:11:39;;;;;;;5.50;4.87;;;;;;;;;;4967750;28;20275;-72
2022/05/21 02:14:04;;;;;;;5.23;4.83;;;;;;;;;;4968638;28;20178;-73
2022/05/21 02:16:30;;;;;;;5.47;4.70;;;;;;;;;;4979385;28;20189;-73
2022/05/21 02:18:55;;;;;;;5.70;5.20;;;;;;;;;;4979006;28;20205;-73
2022/05/21 02:21:20;;;;;;;5.87;5.37;;;;;;;;;;4969458;28;20192;-73
2022/05/21 02:23:46;;;;;;;5.73;5.03;;;;;;;;;;4957765;28;20227;-73
2022/05/21 02:26:11;;;;;;;5.37;4.67;;;;;;;;;;4973787;28;20193;-72
2022/05/21 02:28:36;;;;;;;5.27;4.77;;;;;;;;;;4980655;28;20205;-73
2022/05/21 02:31:02;;;;;;;5.93;5.43;;;;;;;;;;4961660;28;20208;-73
2022/05/21 02:33:27;;;;;;;7.10;6.40;;;;;;;;;;4972536;28;20234;-72
2022/05/21 02:35:52;;;;;;;6.47;5.87;;;;;;;;;;4979935;28;20176;-72
2022/05/21 02:41:01;;;;;;;7.20;6.57;;;;;;;;;;4973332;28;20211;-72
2022/05/21 02:43:29;;;;;;;7.37;6.70;;;;;;;;;;4983369;28;20195;-72
2022/05/21 02:45:54;;;;;;;7.13;6.43;;;;;;;;;;4964883;28;20196;-72
2022/05/21 02:48:19;;;;;;;7.30;6.57;;;;;;;;;;4977104;28;20203;-72
2022/05/21 02:50:44;;;;;;;7.37;6.77;;;;;;;;;;4972181;28;20184;-74
2022/05/21 02:53:15;;;;;;;8.23;7.53;;;;;;;;;;4961609;28;20180;-72
2022/05/21 02:55:41;;;;;;;6.90;6.23;;;;;;;;;;4972627;28;20184;-72
2022/05/21 02:58:07;;;;;;;7.27;6.67;;;;;;;;;;4962446;28;20229;-72
2022/05/21 03:00:33;;;;;;;7.27;6.57;;;;;;;;;;4967188;28;20227;-72
2022/05/21 03:02:58;;;;;;;6.97;6.37;;;;;;;;;;4971278;28;20297;-72
2022/05/21 03:05:25;;;;;;;6.97;6.37;;;;;;;;;;4961930;28;20237;-73
2022/05/21 03:07:51;;;;;;;7.67;6.87;;;;;;;;;;4974533;28;20208;-73
2022/05/21 03:10:20;;;;;;;7.80;6.83;;;;;;;;;;4965155;28;20235;-72
2022/05/21 03:12:46;;;;;;;7.03;6.30;;;;;;;;;;4965378;28;20264;-72
2022/05/21 03:15:11;;;;;;;7.63;6.93;;;;;;;;;;4971468;28;20209;-72
2022/05/21 03:17:36;;;;;;;7.33;6.77;;;;;;;;;;4980418;28;20180;-72
2022/05/21 03:20:03;;;;;;;9.07;8.17;;;;;;;;;;4962350;28;20188;-72
2022/05/21 03:22:29;;;;;;;7.77;7.17;;;;;;;;;;4968030;28;20262;-77
2022/05/21 03:24:54;;;;;;;7.77;7.07;;;;;;;;;;4982320;28;20271;-76
2022/05/21 03:27:20;;;;;;;8.40;7.03;;;;;;;;;;4968814;28;20189;-77
2022/05/21 03:29:45;;;;;;;7.60;6.90;;;;;;;;;;4962398;28;20203;-77
2022/05/21 03:32:10;;;;;;;7.60;6.90;;;;;;;;;;4959563;28;20198;-77
2022/05/21 03:34:39;;;;;;;7.70;7.00;;;;;;;;;;4965093;28;20227;-77
2022/05/21 03:37:04;;;;;;;7.63;6.83;;;;;;;;;;4973130;28;20187;-77
2022/05/21 03:39:30;;;;;;;7.73;6.00;;;;;;;;;;4971564;28;20188;-77
2022/05/21 03:41:55;;;;;;;5.90;5.40;;;;;;;;;;4970597;28;20239;-77
2022/05/21 03:44:20;;;;;;;6.53;5.93;;;;;;;;;;4978011;28;20191;-78
2022/05/21 03:46:45;;;;;;;7.17;6.47;;;;;;;;;;4970942;28;20184;-77
2022/05/21 03:49:10;;;;;;;7.13;6.50;;;;;;;;;;4962671;28;20213;-77
2022/05/21 03:51:37;;;;;;;7.47;6.13;;;;;;;;;;4966258;28;20187;-77
2022/05/21 03:54:03;;;;;;;9.67;5.70;;;;;;;;;;4973020;28;20468;-77
2022/05/21 03:56:28;;;;;;;5.93;5.43;;;;;;;;;;4990871;28;20239;-77
2022/05/21 03:58:53;;;;;;;5.80;5.30;;;;;;;;;;4972836;28;20270;-77
2022/05/21 04:01:19;;;;;;;7.87;5.40;;;;;;;;;;4970137;28;20212;-77
2022/05/21 04:03:44;;;;;;;7.17;6.47;;;;;;;;;;4965672;28;20190;-77
2022/05/21 04:06:11;;;;;;;6.90;5.80;;;;;;;;;;4981334;28;20218;-76
2022/05/21 04:08:37;;;;;;;6.40;5.90;;;;;;;;;;4970027;28;20199;-77
2022/05/21 04:11:02;;;;;;;7.47;6.77;;;;;;;;;;4981721;28;20184;-77
2022/05/21 04:13:28;;;;;;;6.53;6.00;;;;;;;;;;4959296;28;20187;-77
2022/05/21 04:15:53;;;;;;;7.33;6.63;;;;;;;;;;4977753;28;20191;-77
2022/05/21 04:18:19;;;;;;;7.70;7.00;;;;;;;;;;4961753;28;20188;-76
2022/05/21 04:20:45;;;;;;;8.73;7.47;;;;;;;;;;4965592;28;20390;-77
2022/05/21 04:23:10;;;;;;;9.47;6.93;;;;;;;;;;4967394;28;20269;-76
2022/05/21 04:25:35;;;;;;;7.03;6.43;;;;;;;;;;4967927;28;20182;-77
2022/05/21 04:28:00;;;;;;;7.87;6.00;;;;;;;;;;4971270;28;20298;-77
2022/05/21 04:30:28;;;;;;;8.17;6.47;;;;;;;;;;4984347;28;20177;-76
2022/05/21 04:32:54;;;;;;;7.23;6.50;;;;;;;;;;4980312;28;20202;-77
2022/05/21 04:35:20;;;;;;;6.87;6.27;;;;;;;;;;4987286;28;20238;-77
2022/05/21 04:37:45;;;;;;;7.47;6.13;;;;;;;;;;4961065;28;20171;-77
2022/05/21 04:40:12;;;;;;;7.33;6.63;;;;;;;;;;4970598;28;20192;-76
2022/05/21 04:42:38;;;;;;;6.67;6.07;;;;;;;;;;4983165;28;20239;-77
2022/05/21 04:45:04;;;;;;;6.30;5.70;;;;;;;;;;4977526;28;20205;-77
2022/05/21 04:47:30;;;;;;;6.67;5.93;;;;;;;;;;4971554;28;20273;-77
2022/05/21 04:49:55;;;;;;;6.53;5.93;;;;;;;;;;4972226;28;20273;-77
2022/05/21 04:52:20;;;;;;;6.13;5.43;;;;;;;;;;4963636;28;20183;-76
2022/05/21 04:54:45;;;;;;;7.63;5.30;;;;;;;;;;4966117;28;20180;-77
2022/05/21 04:57:11;;;;;;;5.57;5.07;;;;;;;;;;4963574;28;20175;-77
2022/05/21 04:59:36;;;;;;;5.93;5.30;;;;;;;;;;4961528;28;20180;-77
2022/05/21 05:02:02;;;;;;;5.80;5.30;;;;;;;;;;4964318;28;20211;-76
2022/05/21 05:04:27;;;;;;;5.60;5.00;;;;;;;;;;4961925;28;20230;-77
2022/05/21 05:06:52;;;;;;;5.93;5.43;;;;;;;;;;4965043;28;20188;-77
2022/05/21 05:09:22;;;;;;;6.97;5.40;;;;;;;;;;4964090;28;20298;-75
2022/05/21 05:11:48;;;;;;;6.07;5.57;;;;;;;;;;4967845;28;20172;-76
2022/05/21 05:14:13;;;;;;;6.53;5.07;;;;;;;;;;4981348;28;20187;-77
2022/05/21 05:16:38;;;;;;;5.03;4.43;;;;;;;;;;4964610;28;20194;-77
2022/05/21 05:19:04;;;;;;;4.87;4.33;;;;;;;;;;4964927;28;20181;-76
2022/05/21 05:21:29;;;;;;;5.13;4.67;;;;;;;;;;4958019;28;20243;-76
2022/05/21 05:23:54;;;;;;;4.70;4.30;;;;;;;;;;4982506;28;20210;-76
2022/05/21 05:26:22;;;;;;;5.37;4.77;;;;;;;;;;4965672;28;20187;-76
2022/05/21 05:28:47;;;;;;;4.43;4.03;;;;;;;;;;4971594;28;20199;-77
2022/05/21 05:31:12;;;;;;;5.00;4.50;;;;;;;;;;4967469;28;20335;-76
2022/05/21 05:33:38;;;;;;;4.47;4.07;;;;;;;;;;4968158;28;20225;-77
2022/05/21 05:36:03;;;;;;;6.97;3.60;;;;;;;;;;4963231;28;20176;-77
2022/05/21 05:38:28;;;;;;;5.00;3.60;;;;;;;;;;4968424;28;20532;-77
2022/05/21 05:40:55;;;;;;;4.07;3.63;;;;;;;;;;4965863;28;20299;-76
2022/05/21 05:43:20;;;;;;;3.53;3.23;;;;;;;;;;4982199;28;20293;-76
2022/05/21 05:45:47;;;;;;;4.57;3.97;;;;;;;;;;4965863;28;20272;-76
2022/05/21 05:48:12;;;;;;;5.03;4.10;;;;;;;;;;4968024;28;20231;-76
2022/05/21 05:50:37;;;;;;;4.37;3.97;;;;;;;;;;4970926;28;20183;-76
2022/05/21 05:53:03;;;;;;;3.90;3.60;;;;;;;;;;4979774;28;20226;-76
2022/05/21 05:55:30;;;;;;;5.23;3.70;;;;;;;;;;4990463;28;20179;-77
2022/05/21 05:57:55;;;;;;;4.50;3.60;;;;;;;;;;4972650;28;20188;-76
2022/05/21 06:00:21;;;;;;;3.33;3.03;;;;;;;;;;4973135;28;20215;-76
2022/05/21 06:02:58;;;;;;;5.23;3.10;;;;;;;;;;4971535;28;20188;-77
2022/05/21 06:05:23;;;;;;;4.03;2.80;;;;;;;;;;4982826;28;20646;-76
2022/05/21 06:07:53;;;;;;;2.80;2.60;;;;;;;;;;4965249;28;20192;-76
2022/05/21 06:10:23;;;;;;;2.60;2.40;;;;;;;;;;4971588;28;20188;-76
2022/05/21 06:12:48;;;;;;;3.20;2.90;;;;;;;;;;4973577;28;20188;-75
2022/05/21 06:15:14;;;;;;;3.37;2.90;;;;;;;;;;4973435;28;20187;-76
2022/05/21 06:17:39;;;;;;;3.30;2.97;;;;;;;;;;4989094;28;20216;-76
2022/05/21 06:20:05;;;;;;;3.47;2.60;;;;;;;;;;4980880;28;20172;-75
2022/05/21 06:22:32;;;;;;;2.60;2.40;;;;;;;;;;4966580;28;20191;-76
2022/05/21 06:24:57;;;;;;;3.37;2.17;;;;;;;;;;4966325;28;20191;-76
2022/05/21 06:27:22;;;;;;;2.40;2.17;;;;;;;;;;4969385;28;20180;-76
2022/05/21 06:29:47;;;;;;;2.50;2.10;;;;;;;;;;4972354;28;20300;-75
2022/05/21 06:32:13;;;;;;;2.53;2.17;;;;;;;;;;4965469;28;20196;-75
2022/05/21 06:34:38;;;;;;;2.23;1.77;;;;;;;;;;4965054;28;20202;-76
2022/05/21 06:37:04;;;;;;;3.03;1.53;;;;;;;;;;4972404;28;20251;-76
2022/05/21 06:39:33;;;;;;;2.03;1.73;;;;;;;;;;4968124;28;20192;-75
2022/05/21 06:41:58;;;;;;;1.60;1.50;;;;;;;;;;4972820;28;20191;-76
2022/05/21 06:44:24;;;;;;;2.10;1.40;;;;;;;;;;4972403;28;20188;-76
2022/05/21 06:46:49;;;;;;;2.53;1.57;;;;;;;;;;4979551;28;20181;-76
2022/05/21 06:49:14;;;;;;;1.57;1.23;;;;;;;;;;4970876;28;20201;-76
2022/05/21 06:51:40;;;;;;;1.63;1.53;;;;;;;;;;4964972;28;20240;-76
2022/05/21 06:54:05;;;;;;;2.07;1.40;;;;;;;;;;4983288;28;20177;-76
2022/05/21 06:56:30;;;;;;;1.83;1.40;;;;;;;;;;4962640;28;20267;-76
2022/05/21 06:58:55;;;;;;;1.70;1.37;;;;;;;;;;4980704;28;20177;-76
2022/05/21 07:01:20;;;;;;;1.33;1.23;;;;;;;;;;4968995;28;20216;-76
2022/05/21 07:03:46;;;;;;;2.37;1.40;;;;;;;;;;4959818;28;20181;-76
2022/05/21 07:08:55;;;;;;;2.37;0.90;;;;;;;;;;4960238;28;20293;-76
2022/05/21 07:11:20;;;;;;;1.00;1.00;;;;;;;;;;4960909;28;20185;-76
2022/05/21 07:13:45;;;;;;;1.60;1.30;;;;;;;;;;4967834;28;20187;-76
2022/05/21 07:16:10;;;;;;;1.60;1.40;;;;;;;;;;4963748;28;20216;-76
2022/05/21 07:18:36;;;;;;;1.80;0.90;;;;;;;;;;4973766;28;20181;-75
2022/05/21 07:21:01;;;;;;;2.47;1.07;;;;;;;;;;4972833;28;20214;-76
2022/05/21 07:23:29;;;;;;;1.83;1.17;;;;;;;;;;4957984;28;20213;-76
2022/05/21 07:25:57;;;;;;;1.17;1.03;;;;;;;;;;4962610;28;20218;-76
2022/05/21 07:28:24;;;;;;;1.07;1.00;;;;;;;;;;4960499;28;20209;-75
2022/05/21 07:30:49;;;;;;;0.87;0.83;;;;;;;;;;4959284;28;20182;-76
2022/05/21 07:33:16;;;;;;;0.70;0.70;;;;;;;;;;4960215;28;20189;-76
2022/05/21 07:35:41;;;;;;;1.10;0.90;;;;;;;;;;4958869;28;20245;-76
2022/05/21 07:38:08;;;;;;;1.10;1.00;;;;;;;;;;4958624;28;20226;-75
2022/05/21 07:40:34;;;;;;;0.80;0.80;;;;;;;;;;4982191;28;20183;-76
2022/05/21 07:43:07;;;;;;;1.10;1.00;;;;;;;;;;4962880;28;20247;-76
2022/05/21 07:45:38;;;;;;;0.83;0.83;;;;;;;;;;4970906;28;20281;-75
2022/05/21 07:48:03;;;;;;;1.40;0.87;;;;;;;;;;4966355;28;20204;-76
2022/05/21 07:50:29;;;;;;;1.13;1.13;;;;;;;;;;4964712;28;20179;-76
2022/05/21 07:52:54;;;;;;;1.43;1.17;;;;;;;;;;4982493;28;20176;-76
2022/05/21 07:55:19;;;;;;;1.80;0.97;;;;;;;;;;4968937;28;20183;-75
2022/05/21 07:57:44;;;;;;;0.93;0.77;;;;;;;;;;4969043;28;20205;-76
2022/05/21 08:00:17;;;;;;;1.73;0.80;;;;;;;;;;4970763;28;20264;-75
2022/05/21 08:02:42;;;;;;;0.67;0.67;;;;;;;;;;4981025;28;20209;-76
2022/05/21 08:05:08;;;;;;;0.90;0.90;;;;;;;;;;4966730;28;20262;-76
2022/05/21 08:07:33;;;;;;;1.67;0.70;;;;;;;;;;4963199;28;20181;-76
2022/05/21 08:09:59;;;;;;;1.33;0.83;;;;;;;;;;4964026;28;20219;-76
2022/05/21 08:12:24;;;;;;;0.80;0.80;;;;;;;;;;4976727;28;20183;-76
2022/05/21 08:14:49;;;;;;;1.33;0.70;;;;;;;;;;4966159;28;20187;-75
2022/05/21 08:17:14;;;;;;;1.17;1.07;;;;;;;;;;4971481;28;20190;-76
2022/05/21 08:19:41;;;;;;;1.40;1.00;;;;;;;;;;4971216;28;20250;-76
2022/05/21 08:27:36;;;;;;;3.07;1.10;;;;;;;;;;4967025;28;20207;-76
2022/05/21 08:30:01;;;;;;;1.33;0.93;;;;;;;;;;4960399;28;20205;-76
2022/05/21 08:32:26;;;;;;;2.40;0.80;;;;;;;;;;4984386;28;20184;-75
2022/05/21 08:34:52;;;;;;;0.90;0.70;;;;;;;;;;4968991;28;20231;-76
2022/05/21 08:37:18;;;;;;;0.90;0.90;;;;;;;;;;4968527;28;20194;-76
2022/05/21 08:39:46;;;;;;;1.53;1.10;;;;;;;;;;4964150;28;20184;-76
2022/05/21 08:42:15;;;;;;;0.80;0.80;;;;;;;;;;4968085;28;20244;-76
2022/05/21 08:44:46;;;;;;;1.57;1.00;;;;;;;;;;4963352;28;20193;-76
2022/05/21 08:47:17;;;;;;;3.87;1.13;;;;;;;;;;4981520;28;20203;-76
2022/05/21 08:49:46;;;;;;;0.80;0.80;;;;;;;;;;4966725;28;20209;-76
2022/05/21 08:52:11;;;;;;;2.03;1.10;;;;;;;;;;4994105;28;20303;-76
2022/05/21 08:54:44;;;;;;;2.47;0.80;;;;;;;;;;4966943;28;20273;-75
2022/05/21 08:57:15;;;;;;;1.30;1.20;;;;;;;;;;4978752;28;20184;-76
2022/05/21 08:59:44;;;;;;;2.43;1.10;;;;;;;;;;4970329;28;20181;-76
2022/05/21 09:02:12;;;;;;;1.43;1.00;;;;;;;;;;4963160;28;20200;-75
2022/05/21 09:04:38;;;;;;;1.10;1.10;;;;;;;;;;4962076;28;20264;-76
2022/05/21 09:07:05;;;;;;;2.83;1.03;;;;;;;;;;4985879;28;20192;-76
2022/05/21 09:09:48;;;;;;;2.10;1.30;;;;;;;;;;4965970;28;20208;-76
2022/05/21 09:12:14;;;;;;;1.50;1.00;;;;;;;;;;4968602;28;20181;-76
2022/05/21 09:14:42;;;;;;;2.73;1.20;;;;;;;;;;4974176;28;20181;-76
2022/05/21 09:17:12;;;;;;;1.10;0.80;;;;;;;;;;4971073;28;20180;-76
2022/05/21 09:19:39;;;;;;;1.30;0.90;;;;;;;;;;4962157;28;20280;-77
2022/05/21 09:22:06;;;;;;;1.20;1.10;;;;;;;;;;4982536;28;20182;-76
2022/05/21 09:24:36;;;;;;;1.63;0.90;;;;;;;;;;4972274;28;20227;-75
2022/05/21 09:27:02;;;;;;;0.93;0.93;;;;;;;;;;4984164;28;20191;-76
2022/05/21 09:29:31;;;;;;;1.20;1.10;;;;;;;;;;4963314;28;20271;-76
2022/05/21 09:31:57;;;;;;;1.93;0.93;;;;;;;;;;4961895;28;20171;-76
2022/05/21 09:34:24;;;;;;;1.07;1.07;;;;;;;;;;4989875;28;20249;-76
2022/05/21 09:36:49;;;;;;;1.17;1.07;;;;;;;;;;4982409;28;20176;-76
2022/05/21 09:39:34;;;;;;;1.03;0.80;;;;;;;;;;4963811;28;20270;-76
2022/05/21 09:42:06;;;;;;;1.20;1.10;;;;;;;;;;4988708;28;20186;-75
2022/05/21 09:47:21;;;;;;;1.13;0.90;;;;;;;;;;4968478;28;20272;-76
2022/05/21 09:49:58;;;;;;;1.70;1.00;;;;;;;;;;4969534;28;20262;-76
2022/05/21 09:52:25;;;;;;;2.03;1.27;;;;;;;;;;4969225;28;20186;-76
2022/05/21 09:54:51;;;;;;;2.50;1.10;;;;;;;;;;4978410;28;20179;-76
2022/05/21 09:57:22;;;;;;;1.67;0.90;;;;;;;;;;4974168;28;20620;-75
2022/05/21 10:00:04;;;;;;;1.70;1.00;;;;;;;;;;4967542;28;20259;-76
2022/05/21 10:02:38;;;;;;;1.07;0.93;;;;;;;;;;4968203;28;20232;-75
2022/05/21 10:05:04;;;;;;;1.20;1.10;;;;;;;;;;4966240;28;20228;-76
2022/05/21 10:12:59;;;;;;;5.43;1.30;;;;;;;;;;4961409;28;20196;-76
2022/05/21 10:15:29;;;;;;;1.77;1.17;;;;;;;;;;4959624;28;20196;-76
2022/05/21 10:18:01;;;;;;;2.20;0.90;;;;;;;;;;4961686;28;20178;-76
2022/05/21 10:20:29;;;;;;;1.07;0.97;;;;;;;;;;4961915;28;20294;-76
2022/05/21 10:23:04;;;;;;;0.90;0.90;;;;;;;;;;4960243;28;20192;-76
2022/05/21 10:25:49;;;;;;;0.83;0.80;;;;;;;;;;4960818;28;20263;-75
2022/05/21 10:28:33;;;;;;;1.27;1.17;;;;;;;;;;4963525;28;20237;-76
2022/05/21 10:31:33;;;;;;;0.93;0.83;;;;;;;;;;4964501;28;20183;-76
2022/05/21 10:33:59;;;;;;;2.17;0.97;;;;;;;;;;4929304;28;20191;-76
2022/05/21 10:36:29;;;;;;;1.00;0.80;;;;;;;;;;4966411;28;20185;-76
2022/05/21 10:39:15;;;;;;;1.20;1.10;;;;;;;;;;4975893;28;20273;-76
2022/05/21 10:42:00;;;;;;;1.57;0.90;;;;;;;;;;4959533;28;20194;-76
2022/05/21 10:44:33;;;;;;;1.43;1.00;;;;;;;;;;4968008;28;20184;-76
2022/05/21 10:47:03;;;;;;;1.47;0.87;;;;;;;;;;4966703;28;20180;-75
2022/05/21 10:49:34;;;;;;;0.87;0.87;;;;;;;;;;4967049;28;20213;-76
2022/05/21 10:52:11;;;;;;;1.30;1.20;;;;;;;;;;4978220;28;20203;-75
2022/05/21 10:54:55;;;;;;;1.20;1.10;;;;;;;;;;4962259;28;20203;-76
2022/05/21 10:57:23;;;;;;;1.90;0.90;;;;;;;;;;4970955;28;20174;-76
2022/05/21 10:59:52;;;;;;;1.17;0.83;;;;;;;;;;4965244;28;20199;-76
2022/05/21 11:02:52;;;;;;;1.27;1.17;;;;;;;;;;4977855;28;20249;-76
2022/05/21 11:05:30;;;;;;;0.97;0.90;;;;;;;;;;4931000;28;20249;-75
2022/05/21 11:07:55;;;;;;;2.83;1.23;;;;;;;;;;4971150;28;20185;-76
2022/05/21 11:10:37;;;;;;;2.80;1.10;;;;;;;;;;4964569;28;20188;-76
2022/05/21 11:13:07;;;;;;;1.43;0.97;;;;;;;;;;4968380;28;20183;-76
2022/05/21 11:15:41;;;;;;;3.83;1.37;;;;;;;;;;4962805;28;20176;-76
2022/05/21 11:18:06;;;;;;;0.70;0.70;;;;;;;;;;4978521;28;20189;-76
2022/05/21 11:20:40;;;;;;;1.05;0.90;;;;;;;;;;4970414;28;20212;-76
2022/05/21 11:23:08;;;;;;;1.53;1.00;;;;;;;;;;4966131;28;20272;-76
2022/05/21 11:25:37;;;;;;;1.10;1.00;;;;;;;;;;4969774;28;20204;-76
2022/05/21 11:28:21;;;;;;;1.70;1.10;;;;;;;;;;4966845;28;20192;-76
2022/05/21 11:30:46;;;;;;;1.40;1.30;;;;;;;;;;4986846;28;20169;-76
2022/05/21 11:38:49;;;;;;;1.10;0.90;;;;;;;;;;4966263;28;20193;-76
2022/05/21 11:41:30;;;;;;;3.37;1.07;;;;;;;;;;4968209;28;20185;-76
2022/05/21 11:47:17;;;;;;;3.53;1.23;;;;;;;;;;4967272;28;20254;-76
2022/05/21 11:49:42;;;;;;;4.00;1.20;;;;;;;;;;4935085;28;20220;-75
2022/05/21 11:52:27;;;;;;;2.27;1.67;;;;;;;;;;4974688;28;20175;-76
2022/05/21 11:54:55;;;;;;;1.73;1.40;;;;;;;;;;4972686;28;20241;-76
2022/05/21 11:57:34;;;;;;;2.93;1.60;;;;;;;;;;4965125;28;20188;-77
2022/05/21 12:00:05;;;;;;;1.10;1.00;;;;;;;;;;4982082;28;20177;-76
2022/05/21 12:02:31;;;;;;;1.40;1.20;;;;;;;;;;4967813;28;20184;-76
2022/05/21 12:04:57;;;;;;;1.30;1.20;;;;;;;;;;4967057;28;20229;-76
2022/05/21 12:07:40;;;;;;;1.77;1.40;;;;;;;;;;4971332;28;20211;-76
2022/05/21 12:10:08;;;;;;;1.30;0.93;;;;;;;;;;4969325;28;20241;-76
2022/05/21 12:12:34;;;;;;;2.63;1.67;;;;;;;;;;4965358;28;20179;-76
2022/05/21 12:15:14;;;;;;;1.57;1.10;;;;;;;;;;4973024;28;20195;-76
2022/05/21 12:17:51;;;;;;;1.23;1.00;;;;;;;;;;4965961;28;20178;-75
2022/05/21 12:20:36;;;;;;;2.20;1.43;;;;;;;;;;4978579;28;20186;-75
2022/05/21 12:23:01;;;;;;;2.00;1.27;;;;;;;;;;4978659;28;20177;-76
2022/05/21 12:25:42;;;;;;;1.40;1.30;;;;;;;;;;4960788;28;20302;-76
2022/05/21 12:28:08;;;;;;;2.37;1.40;;;;;;;;;;4974984;28;20219;-75
2022/05/21 12:30:34;;;;;;;1.57;1.47;;;;;;;;;;4969231;28;20223;-75
2022/05/21 12:32:59;;;;;;;4.77;1.50;;;;;;;;;;4974124;28;20189;-76
2022/05/21 12:35:31;;;;;;;1.43;1.20;;;;;;;;;;4974957;28;20195;-76
2022/05/21 12:38:16;;;;;;;2.00;1.20;;;;;;;;;;4973878;28;20204;-75
2022/05/21 12:40:52;;;;;;;1.20;1.10;;;;;;;;;;4961318;28;20239;-76
2022/05/21 12:43:17;;;;;;;1.07;0.90;;;;;;;;;;4978221;28;20184;-76
2022/05/21 12:45:44;;;;;;;3.23;1.10;;;;;;;;;;4972589;28;20179;-75
2022/05/21 12:48:22;;;;;;;2.50;1.60;;;;;;;;;;4968242;28;20213;-75
2022/05/21 12:50:47;;;;;;;1.47;1.23;;;;;;;;;;4969767;28;20184;-76
2022/05/21 12:53:16;;;;;;;1.37;1.07;;;;;;;;;;4981102;28;20202;-76
2022/05/21 12:55:41;;;;;;;2.57;1.10;;;;;;;;;;4961359;28;20198;-76
2022/05/21 12:58:09;;;;;;;1.30;1.20;;;;;;;;;;4957606;28;20174;-76
2022/05/21 13:00:36;;;;;;;2.23;1.20;;;;;;;;;;4961573;28;20223;-75
2022/05/21 13:03:06;;;;;;;1.30;1.20;;;;;;;;;;4954503;28;20192;-75
2022/05/21 13:05:34;;;;;;;2.10;1.27;;;;;;;;;;4956426;28;20224;-76
2022/05/21 13:08:03;;;;;;;3.30;1.67;;;;;;;;;;4972035;28;20275;-76
2022/05/21 13:10:30;;;;;;;1.47;1.20;;;;;;;;;;4980003;28;20176;-76
2022/05/21 13:12:58;;;;;;;1.50;1.40;;;;;;;;;;4964160;28;20184;-75
2022/05/21 13:15:34;;;;;;;2.83;1.63;;;;;;;;;;4967133;28;20212;-75
2022/05/21 13:18:02;;;;;;;2.17;1.30;;;;;;;;;;4954086;28;20188;-75
2022/05/21 13:20:48;;;;;;;1.55;1.45;;;;;;;;;;4979861;28;20187;-76
2022/05/21 13:23:42;;;;;;;1.20;1.10;;;;;;;;;;4938763;28;20190;-76
2022/05/21 13:26:14;;;;;;;1.30;1.20;;;;;;;;;;4943971;28;20200;-75
2022/05/21 13:28:39;;;;;;;2.03;1.03;;;;;;;;;;4965611;28;20238;-76
2022/05/21 13:31:14;;;;;;;4.65;1.15;;;;;;;;;;4968027;28;20211;-76
2022/05/21 13:33:50;;;;;;;1.63;0.87;;;;;;;;;;4961271;28;20180;-75
2022/05/21 13:36:18;;;;;;;1.10;1.00;;;;;;;;;;4987841;28;20259;-75
2022/05/21 13:38:44;;;;;;;1.00;0.90;;;;;;;;;;4961789;28;20188;-76
2022/05/21 13:41:12;;;;;;;1.57;1.30;;;;;;;;;;4959197;28;20652;-76
2022/05/21 13:43:40;;;;;;;1.10;1.00;;;;;;;;;;4966429;28;20184;-76
2022/05/21 13:46:07;;;;;;;2.67;1.30;;;;;;;;;;4966174;28;20187;-75
2022/05/21 13:48:37;;;;;;;1.00;0.90;;;;;;;;;;4973468;28;20219;-75
2022/05/21 13:51:02;;;;;;;1.23;0.90;;;;;;;;;;4959977;28;20180;-76
2022/05/21 13:53:29;;;;;;;2.53;1.10;;;;;;;;;;4964515;28;20176;-75
2022/05/21 13:55:58;;;;;;;1.23;1.10;;;;;;;;;;4961538;28;20190;-75
2022/05/21 13:58:28;;;;;;;1.10;1.00;;;;;;;;;;4985250;28;20353;-76
2022/05/21 14:00:54;;;;;;;3.53;1.27;;;;;;;;;;4972060;28;20287;-75
2022/05/21 14:03:31;;;;;;;0.98;0.88;;;;;;;;;;4961936;28;20284;-75
2022/05/21 14:05:58;;;;;;;1.35;1.15;;;;;;;;;;4964557;28;20239;-75
2022/05/21 14:08:30;;;;;;;2.70;1.10;;;;;;;;;;4962824;28;20235;-76
2022/05/21 14:11:00;;;;;;;1.25;1.08;;;;;;;;;;4980917;28;20213;-76
2022/05/21 14:13:44;;;;;;;1.47;1.13;;;;;;;;;;4977330;28;20210;-76
2022/05/21 14:16:24;;;;;;;1.20;1.10;;;;;;;;;;4973228;28;20177;-76
2022/05/21 14:19:09;;;;;;;1.27;1.10;;;;;;;;;;4969377;28;20190;-75
2022/05/21 14:21:34;;;;;;;2.05;1.73;;;;;;;;;;4975111;28;20188;-76
2022/05/21 14:24:26;;;;;;;1.98;1.13;;;;;;;;;;4960738;28;20217;-75
2022/05/21 14:26:55;;;;;;;2.40;1.20;;;;;;;;;;4960791;28;20190;-75
2022/05/21 14:29:38;;;;;;;3.30;1.10;;;;;;;;;;4978987;28;20340;-76
2022/05/21 14:32:15;;;;;;;3.60;1.10;;;;;;;;;;4978666;28;20180;-76
2022/05/21 14:34:41;;;;;;;1.30;1.10;;;;;;;;;;4980541;28;20172;-76
2022/05/21 14:37:19;;;;;;;1.02;0.90;;;;;;;;;;4978290;28;20180;-76
2022/05/21 14:39:45;;;;;;;6.03;5.60;;;;;;;;;;4963718;28;20197;-76
2022/05/21 14:42:10;;;;;;;1.90;1.17;;;;;;;;;;4962443;28;20188;-76
2022/05/21 14:44:35;;;;;;;1.70;1.10;;;;;;;;;;4977820;28;20267;-73
2022/05/21 14:49:44;;;;;;;2.93;1.00;;;;;;;;;;4968276;28;20206;-73
2022/05/21 14:54:54;;;;;;;1.30;1.20;;;;;;;;;;4971222;28;20231;-73
2022/05/21 14:57:20;;;;;;;1.60;1.33;;;;;;;;;;4968061;28;20184;-73
2022/05/21 14:59:45;;;;;;;3.75;1.20;;;;;;;;;;4980072;28;20268;-73
2022/05/21 15:02:14;;;;;;;1.20;1.10;;;;;;;;;;4977311;28;20228;-73
2022/05/21 15:04:40;;;;;;;4.03;1.40;;;;;;;;;;4973883;28;20227;-73
2022/05/21 15:07:08;;;;;;;1.07;1.00;;;;;;;;;;4960523;28;20178;-73
2022/05/21 15:09:34;;;;;;;1.00;1.00;;;;;;;;;;4969825;28;20220;-73
2022/05/21 15:11:59;;;;;;;1.93;1.20;;;;;;;;;;4962738;28;20585;-73
2022/05/21 15:14:24;;;;;;;1.83;1.00;;;;;;;;;;4976447;28;20185;-73
2022/05/21 15:16:49;;;;;;;1.30;1.00;;;;;;;;;;4962159;28;20178;-73
2022/05/21 15:19:14;;;;;;;2.37;1.10;;;;;;;;;;4978277;28;20197;-73
2022/05/21 15:21:41;;;;;;;0.80;0.80;;;;;;;;;;4968432;28;20229;-73
2022/05/21 15:24:07;;;;;;;0.80;0.80;;;;;;;;;;4965190;28;20188;-73
2022/05/21 15:26:32;;;;;;;1.23;1.13;;;;;;;;;;4965035;28;20214;-73